Terminal Aerodrome Forecast
Issued by NWS Topeka, KS

Home | Current Version | Previous Version | Text Only | Print | Product List | Glossary Off
Versions: 1 2 3 4 5 6 7 8 9 10 11 12 13 14 15 16 17 18 19 20 21 22 23 24 25 26 27

000
FTUS43 KTOP 142300
TAFTOP
TAF
KTOP 142326Z 1500/1524 12012KT 4SM -RA BR BKN015 OVC025
     FM150300 14009KT P6SM VCSH SCT015 OVC030
     FM151500 20012KT P6SM BKN025
     FM151700 27014G22KT P6SM OVC015=

USA.gov is the U.S. government's official web portal to all federal, state and local government web resources and services.